• Join FlightAware (Why Join?)
  • Login
  • US Flag 
07:19AM EST


 

Airport Tracker/Info


-or-


 

Live Flight TrackerFlight Track Log ✈ UAL262 ✈ 17-Jun-2013 ✈ KSEA - KIAD

Flight Track Log - Related Links

Times and Time Zones

All times are in EDT time to prevent confusion due to time zone crossing. See the UAL262 flight status page for this flight to view local times or setup timezone preferences in your user account.

Time Position Orientation Groundspeed Altitude Reporting Facility
EDT Latitude Longitude Course Direction KTS MPH feet Rate Location/Type
02:21AM 47.4258 -122.3089 90° East 174 200 1,400  Level Seattle Center
02:22AM 47.3839 -122.3092 180° South 173 199 3,000 1,500 Climbing Seattle Center
02:22AM 47.3506 -122.3106 182° South 188 216 3,600 1,740 Climbing Seattle Center
02:23AM 47.3131 -122.2311 125° Southeast 276 318 5,900 2,400 Climbing Seattle Center
02:24AM 47.4167 -121.5568 90° East  Level FlightAware Approximate
02:24AM 47.3558 -122.1281 58° Northeast 300 345 8,500  Level Seattle Center
02:25AM 47.4168 -121.3702 90° East  Level FlightAware Approximate
02:25AM 47.4053 -122.0219 55° Northeast 314 361 10,600  Level Seattle Center
02:26AM 47.4167 -121.1835 90° East  Level FlightAware Approximate
02:26AM 47.4306 -121.8739 76° East 366 421 11,500  Level Seattle Center
02:27AM 47.4297 -121.7211 90° East 373 429 14,800 2,520 Climbing Seattle Center
02:28AM 47.4278 -121.5794 91° East 350 403 16,600 1,260 Climbing Seattle Center
02:29AM 47.4256 -121.4194 91° East 395 455 17,400 1,320 Climbing Seattle Center
02:30AM 47.4225 -121.2597 92° East 398 458 19,400 1,440 Climbing Seattle Center
02:31AM 47.4197 -121.0928 91° East 411 473 20,400 1,140 Climbing Seattle Center
02:32AM 47.4169 -120.9194 91° East 426 490 21,700 1,380 Climbing Seattle Center
02:33AM 47.4031 -120.7533 97° East 437 503 23,200 1,680 Climbing Seattle Center
02:34AM 47.3753 -120.5914 104° East 413 475 25,100 1,620 Climbing Seattle Center
02:35AM 47.3478 -120.4297 104° East 408 470 26,500 1,380 Climbing Seattle Center
02:36AM 47.3203 -120.2667 104° East 410 472 28,000 1,140 Climbing Seattle Center
02:37AM 47.2881 -120.1072 107° East 409 471 28,900 420 Climbing Seattle Center
02:38AM 47.2372 -119.9556 116° Southeast 411 473 28,900  Level Seattle Center
02:39AM 47.1869 -119.7961 115° Southeast 425 489 28,900  Level Seattle Center
02:40AM 47.1314 -119.6378 117° Southeast 434 499 28,900 180 Level Seattle Center
02:41AM 47.0747 -119.4767 117° Southeast 443 510 29,300 660 Climbing Seattle Center
02:42AM 47.0089 -119.2789 116° Southeast 451 519 30,300 840 Climbing Seattle Center
02:43AM 46.9561 -119.1136 115° Southeast 451 519 31,000 840 Climbing Seattle Center
02:44AM 46.9006 -118.9442 116° Southeast 460 529 32,000 780 Climbing Seattle Center
02:45AM 46.8464 -118.7792 116° Southeast 456 525 32,600 600 Climbing Seattle Center
02:46AM 46.7931 -118.6111 115° Southeast 457 526 33,300 540 Climbing Seattle Center
02:47AM 46.7569 -118.4358 107° East 464 534 33,700 600 Climbing Seattle Center
02:48AM 46.7606 -118.2400 88° East 485 558 34,600 600 Climbing Seattle Center
02:49AM 46.7639 -118.0500 88° East 477 549 35,000 120 Climbing Seattle Center
02:50AM 46.7692 -117.8594 88° East 474 545 34,900 -60 Descending Seattle Center
02:51AM 46.7731 -117.6683 88° East 475 547 34,900  Level Seattle Center
02:52AM 46.7753 -117.4739 89° East 481 554 35,000  Climbing Seattle Center
02:53AM 46.7781 -117.2825 89° East 478 550 35,000 -60 Level Seattle Center
02:54AM 46.7800 -117.0931 89° East 473 544 34,900 -60 Descending Seattle Center
02:55AM 46.7831 -116.9033 89° East 473 544 34,900  Level Seattle Center
02:56AM 46.7853 -116.7117 89° East 475 547 34,900  Level Seattle Center
02:57AM 46.7864 -116.5192 89° East 477 549 34,900  Level Seattle Center
02:58AM 46.7878 -116.3261 89° East 479 551 35,000  Climbing Seattle Center
02:59AM 46.7878 -116.1339 90° East 478 550 34,900  Descending Seattle Center
03:00AM 46.7897 -115.9394 89° East 480 552 35,000  Climbing Seattle Center
03:01AM 46.7897 -115.7467 90° East 478 550 34,900  Descending Seattle Center
03:03AM 46.7903 -115.5531 90° East 478 550 35,000  Climbing Seattle Center
03:04AM 46.7906 -115.3311 90° East 478 550 35,000  Level Seattle Center
03:05AM 46.7900 -115.1381 90° East 478 550 35,000  Level Seattle Center
03:06AM 46.7883 -114.9489 91° East 472 543 35,000 -60 Level Seattle Center
03:07AM 46.7867 -114.7578 91° East 473 544 34,900 -60 Descending Seattle Center
03:08AM 46.7858 -114.5686 90° East 470 541 34,900  Level Seattle Center
03:09AM 46.7839 -114.3786 91° East 471 542 35,000  Climbing Seattle Center
03:10AM 46.7817 -114.1892 91° East 470 541 34,900 -60 Descending Seattle Center
03:11AM 46.7786 -113.9994 91° East 470 541 34,900  Level Seattle Center
03:12AM 46.7753 -113.8122 91° East 466 536 34,900  Level Seattle Center
03:13AM 46.7722 -113.6236 91° East 468 539 34,900  Level Seattle Center
03:14AM 46.7683 -113.3586 91° East 468 539 35,000  Climbing Salt Lake Center
03:15AM 46.7647 -113.1717 92° East 465 535 35,000 -60 Level Salt Lake Center
03:16AM 46.7603 -112.9864 92° East 459 528 34,900 -60 Descending Salt Lake Center
03:17AM 46.7564 -112.7839 92° East 452 520 34,900  Level Salt Lake Center
03:18AM 46.7519 -112.5981 92° East 458 527 34,900  Level Salt Lake Center
03:19AM 46.7469 -112.4133 92° East 459 528 34,900  Level Salt Lake Center
03:20AM 46.7417 -112.2272 92° East 461 531 34,900  Level Salt Lake Center
03:21AM 46.7342 -112.0367 93° East 469 540 35,000  Climbing Salt Lake Center
03:22AM 46.7289 -111.8492 92° East 470 541 35,000  Level Salt Lake Center
03:23AM 46.7228 -111.6636 93° East 467 537 35,000 -60 Level Salt Lake Center
03:24AM 46.7158 -111.4811 93° East 462 532 34,900 -60 Descending Salt Lake Center
03:25AM 46.7100 -111.3022 93° East 454 522 34,900  Level Salt Lake Center
03:26AM 46.7011 -111.0822 93° East 457 526 34,900  Level Salt Lake Center
03:27AM 46.6931 -110.8922 93° East 470 541 35,000  Climbing Salt Lake Center
03:28AM 46.6853 -110.7067 93° East 466 536 34,900  Descending Salt Lake Center
03:29AM 46.6778 -110.5292 93° East 457 526 35,000  Climbing Salt Lake Center
03:30AM 46.6697 -110.3528 94° East 456 525 35,000  Level Salt Lake Center
03:31AM 46.6603 -110.1417 94° East 466 536 35,000  Level Salt Lake Center
03:32AM 46.6514 -109.9614 94° East 466 536 35,000  Level Salt Lake Center
03:33AM 46.6422 -109.7817 94° East 465 535 35,000  Level Salt Lake Center
03:34AM 46.6311 -109.5706 94° East 465 535 35,000  Level Salt Lake Center
03:35AM 46.6233 -109.3889 94° East 469 540 35,000  Level Salt Lake Center
03:36AM 46.6139 -109.2089 94° East 466 536 35,000  Level Salt Lake Center
03:37AM 46.6025 -109.0292 95° East 467 537 35,000  Level Salt Lake Center
03:38AM 46.5903 -108.8183 95° East 469 540 35,000  Level Salt Lake Center
03:39AM 46.5803 -108.6367 95° East 472 543 35,000  Level Salt Lake Center
03:40AM 46.5678 -108.4558 96° East 471 542 35,000  Level Salt Lake Center
03:41AM 46.5542 -108.2439 95° East 471 542 35,000  Level Salt Lake Center
03:42AM 46.5422 -108.0619 95° East 472 543 35,000  Level Salt Lake Center
03:43AM 46.5303 -107.8778 95° East 477 549 35,000  Level Salt Lake Center
03:44AM 46.5172 -107.6950 96° East 476 548 35,000  Level Salt Lake Center
03:45AM 46.5028 -107.4828 96° East 472 543 35,000  Level Salt Lake Center
03:46AM 46.4897 -107.3003 96° East 472 543 35,000  Level Salt Lake Center
03:47AM 46.4761 -107.1169 96° East 475 547 35,000  Level Salt Lake Center
03:48AM 46.4597 -106.9053 96° East 475 547 35,000  Level Salt Lake Center
03:49AM 46.4456 -106.7228 96° East 475 547 35,000  Level Salt Lake Center
03:50AM 46.4292 -106.5375 97° East 479 551 35,000  Level Salt Lake Center
03:51AM 46.4150 -106.3558 96° East 477 549 35,000  Level Salt Lake Center
03:52AM 46.3964 -106.1408 97° East 480 552 35,000  Level Salt Lake Center
03:53AM 46.3811 -105.9600 97° East 476 548 35,000  Level Salt Lake Center
03:54AM 46.3639 -105.7758 98° East 478 550 35,000  Level Salt Lake Center
03:55AM 46.3419 -105.5617 98° East 480 552 35,000  Level Salt Lake Center
03:56AM 46.3242 -105.3778 98° East 481 554 35,000  Level Salt Lake Center
03:57AM 46.3078 -105.1947 97° East 481 554 35,000  Level Salt Lake Center
03:58AM 46.2903 -105.0125 98° East 479 551 35,000  Level Salt Lake Center
03:59AM 46.2672 -104.7989 99° East 480 552 35,000 -60 Level Salt Lake Center
04:00AM 46.2492 -104.6172 98° East 480 552 34,900 -60 Descending Salt Lake Center
04:01AM 46.2283 -104.4178 99° East 479 551 34,900  Level Salt Lake Center
04:02AM 46.2086 -104.2297 99° East 478 550 34,900  Level Salt Lake Center
04:03AM 46.1883 -104.0417 99° East 477 549 34,900  Level Salt Lake Center
04:04AM 46.1678 -103.8517 99° East 480 552 34,900  Level Salt Lake Center
04:05AM 46.1461 -103.6594 99° East 485 558 35,000 60 Climbing Salt Lake Center
04:06AM 46.1389 -103.5878 98° East 485 558 35,000  Level Minneapolis Center
04:06AM 46.1247 -103.4689 100° East 485 558 35,000 -120 Level Salt Lake Center
04:07AM 46.1031 -103.2753 99° East 488 562 34,900 -60 Descending Salt Lake Center
04:08AM 46.0808 -103.0833 99° East 489 563 34,900  Level Salt Lake Center
04:09AM 46.0744 -103.0064 97° East 494 568 34,900  Level Minneapolis Center
04:10AM 46.0514 -102.8147 100° East 493 567 34,900  Level Minneapolis Center
04:11AM 46.0194 -102.5942 102° East 485 558 35,000  Climbing Minneapolis Center
04:12AM 45.9922 -102.4025 101° East 486 559 35,000  Level Minneapolis Center
04:13AM 45.9678 -102.2078 100° East 490 564 35,000  Level Minneapolis Center
04:14AM 45.9447 -102.0147 100° East 491 565 35,000  Level Minneapolis Center
04:15AM 45.9194 -101.8231 101° East 491 565 35,000  Level Minneapolis Center
04:16AM 45.8972 -101.6250 99° East 495 570 35,000  Level Minneapolis Center
04:17AM 45.8706 -101.4314 101° East 496 571 35,000  Level Minneapolis Center
04:18AM 45.8439 -101.2369 101° East 498 573 35,000  Level Minneapolis Center
04:19AM 45.8211 -101.0403 99° East 499 574 35,000  Level Minneapolis Center
04:20AM 45.7936 -100.8453 101° East 498 573 35,000  Level Minneapolis Center
04:21AM 45.7656 -100.6492 102° East 500 575 35,000  Level Minneapolis Center
04:22AM 45.7392 -100.4539 101° East 500 575 35,000  Level Minneapolis Center
04:23AM 45.7289 -100.2558 94° East 497 572 35,000  Level Minneapolis Center
04:24AM 45.7194 -100.0617 94° East 490 564 35,000  Level Minneapolis Center
04:25AM 45.7125 -99.8672 93° East 488 562 35,000 -60 Level Minneapolis Center
04:26AM 45.7022 -99.6739 94° East 485 558 34,900  Descending Minneapolis Center
04:27AM 45.6925 -99.4814 94° East 484 557 35,000  Climbing Minneapolis Center
04:28AM 45.6828 -99.2889 94° East 484 557 35,000  Level Minneapolis Center
04:29AM 45.6736 -99.0983 94° East 482 555 35,000  Level Minneapolis Center
04:30AM 45.6633 -98.9064 94° East 481 554 35,000  Level Minneapolis Center
04:31AM 45.6531 -98.7156 94° East 482 555 35,000  Level Minneapolis Center
04:32AM 45.6414 -98.5253 95° East 481 554 35,000  Level Minneapolis Center
04:33AM 45.6300 -98.3358 95° East 480 552 35,000  Level Minneapolis Center
04:34AM 45.6203 -98.1486 94° East 477 549 35,000  Level Minneapolis Center
04:35AM 45.6067 -97.9744 96° East 476 548 35,000  Level Minneapolis Center
04:36AM 45.5947 -97.7853 95° East 478 550 35,000  Level Minneapolis Center
04:37AM 45.5819 -97.5958 95° East 479 551 35,000  Level Minneapolis Center
04:38AM 45.5700 -97.4081 95° East 477 549 35,000  Level Minneapolis Center
04:39AM 45.5569 -97.2225 96° East 472 543 35,000  Level Minneapolis Center
04:40AM 45.5431 -97.0350 96° East 475 547 35,000  Level Minneapolis Center
04:41AM 45.5297 -96.8481 96° East 474 545 35,000  Level Minneapolis Center
04:42AM 45.5153 -96.6589 96° East 479 551 35,000  Level Minneapolis Center
04:43AM 45.5003 -96.4697 96° East 481 554 35,000  Level Minneapolis Center
04:44AM 45.4861 -96.2819 96° East 479 551 35,000  Level Minneapolis Center
04:45AM 45.4686 -96.0550 96° East 480 552 35,000  Level Minneapolis Center
04:46AM 45.4539 -95.8672 96° East 478 550 35,000  Level Minneapolis Center
04:47AM 45.4372 -95.6811 97° East 475 547 35,000  Level Minneapolis Center
04:48AM 45.4219 -95.4947 97° East 475 547 35,000  Level Minneapolis Center
04:49AM 45.4061 -95.3089 97° East 474 545 35,000  Level Minneapolis Center
04:50AM 45.3903 -95.1228 97° East 474 545 35,000  Level Minneapolis Center
04:51AM 45.3731 -94.9372 97° East 473 544 35,000  Level Minneapolis Center
04:52AM 45.3558 -94.7497 97° East 477 549 35,000  Level Minneapolis Center
04:53AM 45.3406 -94.5814 97° East 477 549 35,000  Level Minneapolis Center
04:54AM 45.3231 -94.3972 98° East 474 545 35,000  Level Minneapolis Center
04:55AM 45.3058 -94.2144 98° East 469 540 35,000  Level Minneapolis Center
04:56AM 45.2881 -94.0322 98° East 468 539 35,000  Level Minneapolis Center
04:57AM 45.2694 -93.8494 98° East 468 539 35,000  Level Minneapolis Center
04:58AM 45.2511 -93.6653 98° East 471 542 35,000  Level Minneapolis Center
04:59AM 45.2319 -93.4847 99° East 465 535 35,000 -60 Level Minneapolis Center
05:00AM 45.2133 -93.3022 98° East 466 536 34,900  Descending Minneapolis Center
05:01AM 45.1931 -93.1194 99° East 466 536 35,000  Climbing Minneapolis Center
05:02AM 45.1733 -92.9361 99° East 469 540 35,000  Level Minneapolis Center
05:03AM 45.1533 -92.7536 99° East 469 540 35,000  Level Minneapolis Center
05:04AM 45.1328 -92.5711 99° East 470 541 35,000  Level Minneapolis Center
05:05AM 45.1128 -92.3883 99° East 470 541 35,000  Level Minneapolis Center
05:06AM 45.0878 -92.1692 99° East 472 543 35,000  Level Minneapolis Center
05:07AM 45.0667 -91.9872 99° East 470 541 35,000  Level Minneapolis Center
05:08AM 45.0456 -91.8069 99° East 468 539 35,000  Level Minneapolis Center
05:09AM 45.0239 -91.6278 100° East 465 535 35,000  Level Minneapolis Center
05:10AM 45.0050 -91.4836 100° East 467 537 35,000  Level Minneapolis Center
05:11AM 44.9742 -91.2656 101° East 469 540 35,000  Level Minneapolis Center
05:12AM 44.9194 -91.1006 115° Southeast 473 544 35,000  Level Minneapolis Center
05:15AM 44.8373 -90.8789 118° Southeast  Level FlightAware Approximate
05:16AM 44.7008 -90.4764 118° Southeast 476 548 35,000  Level Chicago Center
05:17AM 44.6406 -90.3089 117° Southeast 479 551 35,000  Level Chicago Center
05:18AM 44.5800 -90.1417 117° Southeast 482 555 35,000  Level Chicago Center
05:19AM 44.5186 -89.9742 117° Southeast 483 556 35,000  Level Chicago Center
05:20AM 44.4581 -89.8056 117° Southeast 485 558 35,000  Level Chicago Center
05:21AM 44.3839 -89.6086 118° Southeast 486 559 35,000  Level Minneapolis Center
05:22AM 44.3214 -89.4386 117° Southeast 490 564 35,000  Level Minneapolis Center
05:23AM 44.2583 -89.2700 118° Southeast 488 562 35,000  Level Minneapolis Center
05:24AM 44.1936 -89.1008 118° Southeast 492 566 35,000  Level Minneapolis Center
05:26AM 44.1078 -88.8697 117° Southeast 500 575 35,000  Level Minneapolis Center
05:26AM 44.0747 -88.7853 119° Southeast 504 580 35,000  Level Chicago Center
05:27AM 44.0100 -88.6125 117° Southeast 502 578 35,000  Level Chicago Center
05:28AM 43.9436 -88.4428 118° Southeast 497 572 35,000  Level Chicago Center
05:29AM 43.8775 -88.2697 118° Southeast 502 578 35,000  Level Chicago Center
05:30AM 43.8097 -88.0983 119° Southeast 502 578 35,000  Level Chicago Center
05:31AM 43.7425 -87.9261 118° Southeast 505 581 35,000  Level Chicago Center
05:32AM 43.6733 -87.7542 119° Southeast 507 583 35,000  Level Chicago Center
05:33AM 43.6044 -87.5822 119° Southeast 509 586 35,000  Level Chicago Center
05:34AM 43.5356 -87.4108 119° Southeast 509 586 35,000  Level Chicago Center
05:35AM 43.4783 -87.2667 119° Southeast 512 589 35,000  Level Chicago Center
05:36AM 43.3950 -87.0614 119° Southeast 513 590 35,000  Level Chicago Center
05:37AM 43.3256 -86.8911 119° Southeast 513 590 35,000  Level Chicago Center
05:38AM 43.2564 -86.7203 119° Southeast 511 588 35,000  Level Chicago Center
05:39AM 43.1864 -86.5514 120° Southeast 512 589 35,000  Level Chicago Center
05:40AM 43.1167 -86.3833 120° Southeast 511 588 35,000  Level Chicago Center
05:41AM 43.0464 -86.2172 120° Southeast 510 587 35,000  Level Chicago Center
05:42AM 42.9767 -86.0553 120° Southeast 510 587 35,000  Level Chicago Center
05:43AM 42.9103 -85.8922 119° Southeast 510 587 35,000  Level Chicago Center
05:44AM 42.8397 -85.7253 120° Southeast 513 590 35,000  Level Chicago Center
05:45AM 42.7703 -85.5600 120° Southeast 508 585 35,000  Level Chicago Center
05:46AM 42.6997 -85.3939 120° Southeast 508 585 35,000 -60 Level Chicago Center
05:47AM 42.6281 -85.2297 121° Southeast 508 585 34,900  Descending Chicago Center
05:48AM 42.5564 -85.0639 120° Southeast 510 587 35,000  Climbing Chicago Center
05:49AM 42.4697 -84.8650 121° Southeast 512 589 35,000  Level Chicago Center
05:50AM 42.3969 -84.6994 121° Southeast 512 589 35,000  Level Chicago Center
05:51AM 42.3247 -84.5358 121° Southeast 509 586 35,000  Level Chicago Center
05:52AM 42.2528 -84.3725 121° Southeast 508 585 35,000  Level Chicago Center
05:53AM 42.2008 -84.2694 124° Southeast 512 589 35,000  Level Cleveland Center
05:54AM 42.1311 -84.1056 120° Southeast 512 589 35,000  Level Cleveland Center
05:55AM 42.0567 -83.9450 122° Southeast 512 589 35,000  Level Cleveland Center
05:56AM 41.9839 -83.7872 122° Southeast 512 589 35,000  Level Cleveland Center
05:57AM 41.9092 -83.6244 122° Southeast 512 589 35,000  Level Cleveland Center
05:58AM 41.8364 -83.4594 121° Southeast 512 589 35,000  Level Cleveland Center
05:59AM 41.7628 -83.3058 123° Southeast 512 589 35,000  Level Cleveland Center
06:00AM 41.6767 -83.1603 128° Southeast 502 578 35,000  Level Cleveland Center
06:01AM 41.5922 -83.0208 129° Southeast 497 572 35,000  Level Cleveland Center
06:02AM 41.5053 -82.8789 129° Southeast 499 574 35,000  Level Cleveland Center
06:03AM 41.4164 -82.7375 130° Southeast 493 567 35,000  Level Cleveland Center
06:04AM 41.3294 -82.5961 129° Southeast 493 567 35,000  Level Cleveland Center
06:05AM 41.2422 -82.4553 129° Southeast 493 567 35,000  Level Cleveland Center
06:06AM 41.1547 -82.3150 130° Southeast 493 567 35,000  Level Cleveland Center
06:07AM 41.0672 -82.1722 129° Southeast 493 567 35,000  Level Cleveland Center
06:08AM 40.9894 -82.0519 131° Southeast 488 562 35,000  Level Cleveland Center
06:09AM 40.9017 -81.9156 130° Southeast 488 562 35,000 -60 Level Cleveland Center
06:10AM 40.8133 -81.7764 130° Southeast 488 562 34,900  Descending Cleveland Center
06:11AM 40.7272 -81.6381 129° Southeast 494 568 35,000  Climbing Cleveland Center
06:12AM 40.6389 -81.4997 130° Southeast 489 563 35,000  Level Cleveland Center
06:13AM 40.5544 -81.3619 129° Southeast 489 563 35,000  Level Cleveland Center
06:14AM 40.4636 -81.2244 131° Southeast 489 563 35,000  Level Cleveland Center
06:15AM 40.3622 -81.0653 130° Southeast 506 582 35,000  Level Cleveland Center
06:16AM 40.2708 -80.9258 131° Southeast 506 582 35,000  Level Cleveland Center
06:17AM 40.1794 -80.7922 132° Southeast 506 582 35,000  Level Cleveland Center
06:18AM 40.0881 -80.6508 130° Southeast 506 582 35,000  Level Cleveland Center
06:19AM 39.9964 -80.5125 131° Southeast 506 582 35,000  Level Cleveland Center
06:20AM 39.9147 -80.3639 126° Southeast 506 582 35,000 -120 Level Cleveland Center
06:21AM 39.8372 -80.2072 123° Southeast 512 589 34,800 -1,200 Descending Cleveland Center
06:24AM 39.6533 -79.8394 123° Southeast 508 585 31,000 -1,680 Descending Washington Center
06:25AM 39.5756 -79.6839 123° Southeast 508 585 29,200 -2,040 Descending Washington Center
06:25AM 39.5056 -79.5322 121° Southeast 503 579 27,000 -1,860 Descending Washington Center
06:26AM 39.4692 -79.3606 105° East 481 554 25,600 -1,500 Descending Washington Center
06:28AM 39.4406 -79.2142 104° East 481 554 24,000 -1,620 Descending Washington Center
06:29AM 39.4136 -79.0597 103° East 457 526 22,400 -1,980 Descending Washington Center
06:30AM 39.3886 -78.9133 102° East 435 501 20,100 -2,100 Descending Washington Center
06:31AM 39.3611 -78.7725 104° East 416 479 18,300 -1,800 Descending Washington Center
06:32AM 39.3375 -78.6372 103° East 395 455 16,500 -1,800 Descending Washington Center
06:32AM 39.3136 -78.5131 104° East 375 432 14,800 -1,740 Descending Washington Center
06:34AM 39.2917 -78.3861 103° East 363 418 13,100 -1,560 Descending Washington Center
06:34AM 39.2439 -78.2850 121° Southeast 341 392 11,700 -1,500 Descending Washington Center
06:36AM 39.2150 -78.1822 110° East 317 365 10,200 -1,500 Descending Washington Center
06:37AM 39.2172 -78.0697 89° East 298 343 8,700 -1,500 Descending Washington Center
06:38AM 39.2172 -77.9625 90° East 298 343 7,200 -1,560 Descending Washington Center
06:38AM 39.2153 -77.8581 91° East 298 343 5,700 -1,140 Descending Washington Center
06:40AM 39.2108 -77.7561 93° East 288 331 5,000 -660 Descending Washington Center
06:41AM 39.2167 -77.6000 87° East 280 322 4,200 -840 Descending Potomac TRACON
06:42AM 39.2000 -77.5167 104° East 274 315 3,100 -600 Descending Potomac TRACON
06:43AM 39.1333 -77.4667 150° Southeast 247 284 3,000 -120 Descending Potomac TRACON